Time;durP1;ratioP1;P1;durP2;ratioP2;P2;SDS_P1;SDS_P2;PMS_P1;PMS_P2;Temp;Humidity;BMP_temperature;BMP_pressure;BME280_temperature;BME280_humidity;BME280_pressure;Samples;Min_cycle;Max_cycle;Signal;HPM_P1;HPM_P2
2022/09/05 00:01:56;;;;;;;17.57;12.28;;;;;;;12.85;100.00;98895.33;1722657;82;21059;-84
2022/09/05 00:05:21;;;;;;;20.70;12.73;;;;;;;12.82;100.00;98899.93;1722451;82;21473;-89
2022/09/05 00:08:36;;;;;;;20.10;12.75;;;;;;;12.72;100.00;98885.80;1720759;80;21012;-84
2022/09/05 00:11:40;;;;;;;17.05;12.35;;;;;;;12.65;100.00;98883.38;1684075;84;21007;-90
2022/09/05 00:14:57;;;;;;;18.27;14.13;;;;;;;12.61;100.00;98886.89;1735326;82;21009;-83
2022/09/05 00:18:02;;;;;;;19.07;12.88;;;;;;;12.57;100.00;98883.91;1722645;82;21080;-90
2022/09/05 00:20:54;;;;;;;20.77;14.73;;;;;;;12.55;100.00;98887.97;1737398;82;21033;-83
2022/09/05 00:24:07;;;;;;;19.35;13.53;;;;;;;12.56;100.00;98889.60;1730899;82;21019;-90
2022/09/05 00:27:18;;;;;;;19.57;14.53;;;;;;;12.58;100.00;98883.38;1734881;82;21060;-89
2022/09/05 00:30:17;;;;;;;19.12;13.93;;;;;;;12.56;100.00;98889.60;1733850;82;21086;-85
2022/09/05 00:33:20;;;;;;;21.95;15.08;;;;;;;12.56;100.00;98890.95;1712521;82;20988;-83
2022/09/05 00:36:28;;;;;;;24.12;14.80;;;;;;;12.59;100.00;98880.92;1712822;82;21491;-83
2022/09/05 00:39:28;;;;;;;21.75;15.90;;;;;;;12.61;100.00;98884.98;1712663;82;21026;-83
2022/09/05 00:42:17;;;;;;;20.08;14.23;;;;;;;12.64;100.00;98884.98;1690234;83;21171;-89
2022/09/05 00:45:02;;;;;;;;;;;;;;;12.66;100.00;98885.55;1710374;82;21017;-88
2022/09/05 00:48:15;;;;;;;28.77;15.63;;;;;;;12.67;100.00;98886.63;1729868;82;20214;-90
2022/09/05 00:51:38;;;;;;;19.75;14.38;;;;;;;12.67;100.00;98885.27;1736946;82;21484;-91
2022/09/05 00:54:43;;;;;;;21.15;13.60;;;;;;;12.71;100.00;98882.81;1713000;82;21003;-84
2022/09/05 00:58:05;;;;;;;21.90;16.15;;;;;;;12.68;100.00;98884.73;1713247;82;21337;-83
2022/09/05 01:00:54;;;;;;;21.77;15.03;;;;;;;12.62;100.00;98883.09;1712718;82;20992;-83
2022/09/05 01:03:55;;;;;;;16.20;12.00;;;;;;;12.57;100.00;98889.36;1718608;82;21524;-83
2022/09/05 01:07:12;;;;;;;18.23;13.95;;;;;;;12.53;100.00;98885.53;1695930;82;21060;-87
2022/09/05 01:10:05;;;;;;;18.02;12.70;;;;;;;12.50;100.00;98887.44;1731341;82;21027;-90
2022/09/05 01:13:17;;;;;;;18.62;12.78;;;;;;;12.48;100.00;98882.83;1718107;82;22130;-83
2022/09/05 01:16:13;;;;;;;16.77;12.18;;;;;;;12.46;100.00;98879.54;1713700;82;21060;-90
2022/09/05 01:19:30;;;;;;;19.12;11.45;;;;;;;12.45;100.00;98879.27;1712372;82;21089;-84
2022/09/05 01:22:57;;;;;;;18.02;11.93;;;;;;;12.42;100.00;98880.64;1712778;82;21162;-88
2022/09/05 01:26:09;;;;;;;19.12;11.48;;;;;;;12.39;100.00;98873.03;1725517;82;21037;-83
2022/09/05 01:29:26;;;;;;;16.00;11.25;;;;;;;12.37;100.00;98873.02;1728279;82;20979;-84
2022/09/05 01:32:21;;;;;;;16.30;10.82;;;;;;;12.31;100.00;98872.75;1699216;82;21500;-83
2022/09/05 01:35:34;;;;;;;19.30;12.63;;;;;;;12.24;100.00;98866.22;1709633;82;21098;-83
2022/09/05 01:38:47;;;;;;;16.52;12.15;;;;;;;12.20;100.00;98874.63;1736473;82;21072;-89
2022/09/05 01:41:42;;;;;;;48.00;27.20;;;;;;;12.16;100.00;98874.91;1730362;82;21017;-89
2022/09/05 01:44:56;;;;;;;63.33;37.33;;;;;;;12.14;100.00;98880.61;1719665;82;21079;-89
2022/09/05 01:47:52;;;;;;;37.20;23.98;;;;;;;12.17;100.00;98876.53;1728740;82;21041;-89
2022/09/05 01:51:03;;;;;;;22.93;15.43;;;;;;;12.23;100.00;98882.80;1726289;82;21072;-89
2022/09/05 01:54:16;;;;;;;15.55;12.10;;;;;;;12.27;100.00;98875.18;1702190;82;21480;-88
2022/09/05 01:57:49;;;;;;;16.52;12.05;;;;;;;12.29;100.00;98877.62;1706649;82;21374;-83
2022/09/05 02:00:57;;;;;;;19.15;13.85;;;;;;;12.31;100.00;98879.00;1711586;82;21019;-90
2022/09/05 02:03:49;;;;;;;30.30;21.02;;;;;;;12.33;100.00;98876.02;1711592;82;21486;-89
2022/09/05 02:06:45;;;;;;;28.35;19.75;;;;;;;12.36;100.00;98883.07;1703406;82;21047;-90
2022/09/05 02:09:52;;;;;;;24.75;19.37;;;;;;;12.38;100.00;98887.69;1699096;82;21060;-90
2022/09/05 02:12:53;;;;;;;21.75;15.00;;;;;;;12.41;100.00;98884.99;1712610;82;21058;-83
2022/09/05 02:16:07;;;;;;;23.45;16.25;;;;;;;12.45;100.00;98890.69;1712054;82;21052;-89
2022/09/05 02:19:13;;;;;;;21.35;14.38;;;;;;;12.39;100.00;98882.55;1697605;82;21006;-83
2022/09/05 02:22:09;;;;;;;18.55;12.55;;;;;;;12.41;100.00;98884.99;1722727;82;21064;-84
2022/09/05 02:25:06;;;;;;;16.05;12.03;;;;;;;12.38;100.00;98878.72;1737078;82;21072;-83
2022/09/05 02:28:03;;;;;;;15.93;11.70;;;;;;;12.31;100.00;98879.00;1737138;82;21584;-83
2022/09/05 02:30:51;;;;;;;18.40;12.45;;;;;;;12.25;100.00;98880.08;1734716;82;21477;-83
2022/09/05 02:33:40;;;;;;;20.17;12.90;;;;;;;12.21;100.00;98880.87;1737410;82;21024;-89
2022/09/05 02:36:51;;;;;;;18.90;12.90;;;;;;;12.19;100.00;98881.14;1722080;82;21064;-83
2022/09/05 02:40:02;;;;;;;17.50;12.55;;;;;;;12.18;100.00;98878.70;1736981;82;21009;-89
2022/09/05 02:43:15;;;;;;;15.40;10.75;;;;;;;12.17;100.00;98875.72;1737245;82;21025;-90
2022/09/05 02:46:14;;;;;;;16.25;12.10;;;;;;;12.13;100.00;98869.98;1690939;82;21477;-88
2022/09/05 02:49:26;;;;;;;16.60;12.43;;;;;;;12.07;100.00;98872.44;1700738;82;21055;-84
2022/09/05 02:52:10;;;;;;;16.48;12.78;;;;;;;12.01;100.00;98872.96;1712773;83;21101;-83
2022/09/05 02:54:54;;;;;;;16.95;11.63;;;;;;;12.01;100.00;98874.31;1731477;82;21468;-85
2022/09/05 02:58:34;;;;;;;14.50;11.20;;;;;;;11.98;100.00;98872.69;1737490;82;21398;-88
2022/09/05 03:01:40;;;;;;;17.27;11.83;;;;;;;11.94;100.00;98872.39;1718117;82;21377;-83
2022/09/05 03:04:42;;;;;;;14.33;11.08;;;;;;;11.90;100.00;98871.31;1716982;81;21044;-83
2022/09/05 03:08:08;;;;;;;14.10;11.15;;;;;;;11.88;100.00;98880.78;1727172;82;21041;-83
2022/09/05 03:11:07;;;;;;;13.85;11.20;;;;;;;11.84;100.00;98885.41;1714202;82;21060;-89
2022/09/05 03:14:10;;;;;;;;;;;;;;;11.81;100.00;98883.78;1704437;82;21492;-83
2022/09/05 03:17:29;;;;;;;18.15;11.60;;;;;;;11.79;100.00;98884.53;1711062;82;20211;-83
2022/09/05 03:21:00;;;;;;;15.68;11.48;;;;;;;11.80;100.00;98894.37;1717756;82;21005;-84
2022/09/05 03:24:18;;;;;;;13.08;10.13;;;;;;;11.80;100.00;98891.11;1737069;82;21052;-83
2022/09/05 03:27:32;;;;;;;17.17;10.65;;;;;;;11.85;100.00;98891.11;1737698;82;21112;-89
2022/09/05 03:30:48;;;;;;;17.02;10.18;;;;;;;11.86;100.00;98890.02;1729854;82;21083;-89
2022/09/05 03:34:14;;;;;;;13.48;10.85;;;;;;;11.81;100.00;98897.36;1704201;82;20993;-90
2022/09/05 03:37:41;;;;;;;17.02;10.63;;;;;;;11.76;100.00;98898.11;1736008;82;21115;-84
2022/09/05 03:40:58;;;;;;;15.58;11.20;;;;;;;11.72;100.00;98898.38;1728070;82;21075;-89
2022/09/05 03:44:03;;;;;;;16.65;12.88;;;;;;;11.74;100.00;98899.47;1702992;82;21059;-90
2022/09/05 03:47:40;;;;;;;17.25;12.40;;;;;;;11.73;100.00;98902.72;1722930;82;21064;-83
2022/09/05 03:51:04;;;;;;;14.75;11.30;;;;;;;11.72;100.00;98906.52;1701011;82;21524;-90
2022/09/05 03:54:20;;;;;;;13.18;10.40;;;;;;;11.67;100.00;98901.60;1702181;82;21024;-89
2022/09/05 03:57:43;;;;;;;14.28;10.32;;;;;;;11.68;100.00;98906.77;1714478;82;21062;-89
2022/09/05 04:00:32;;;;;;;12.93;9.75;;;;;;;11.68;100.00;98912.73;1712558;82;21018;-84
2022/09/05 04:03:27;;;;;;;;;;;;;;;11.67;100.00;98911.92;1720713;81;21158;-83
2022/09/05 04:06:46;;;;;;;18.30;10.40;;;;;;;11.67;100.00;98912.46;1708877;82;20252;-89
2022/09/05 04:10:01;;;;;;;14.78;10.88;;;;;;;11.66;100.00;98921.15;1706196;82;21456;-83
2022/09/05 04:12:49;;;;;;;13.50;10.25;;;;;;;11.69;100.00;98924.68;1712628;82;21618;-83
2022/09/05 04:15:45;;;;;;;15.20;11.10;;;;;;;11.71;100.00;98927.97;1715453;82;21539;-83
2022/09/05 04:18:47;;;;;;;22.42;12.78;;;;;;;11.74;100.00;98929.33;1703717;82;21011;-89
2022/09/05 04:21:35;;;;;;;13.08;10.32;;;;;;;11.77;100.00;98935.03;1670605;85;21485;-84
2022/09/05 04:24:30;;;;;;;15.90;11.65;;;;;;;11.80;100.00;98935.09;1652096;86;21014;-90
2022/09/05 04:27:49;;;;;;;16.93;10.80;;;;;;;11.81;100.00;98935.38;1688943;84;21661;-90
2022/09/05 04:30:51;;;;;;;13.83;10.28;;;;;;;11.86;100.00;98932.66;1721617;82;21654;-90
2022/09/05 04:33:46;;;;;;;13.93;9.23;;;;;;;11.83;100.00;98941.34;1703720;82;20986;-84
2022/09/05 04:36:33;;;;;;;25.52;11.12;;;;;;;11.84;100.00;98943.79;1669769;84;21032;-85
2022/09/05 04:39:23;;;;;;;20.02;10.38;;;;;;;11.83;100.00;98946.23;1671313;85;21010;-83
2022/09/05 04:42:19;;;;;;;14.83;9.73;;;;;;;11.88;100.00;98956.83;1685507;85;21082;-90
2022/09/05 04:45:10;;;;;;;17.32;12.15;;;;;;;11.82;100.00;98959.54;1708900;82;21050;-83
2022/09/05 04:47:54;;;;;;;16.95;10.28;;;;;;;11.86;100.00;98956.55;1712576;82;21058;-90
2022/09/05 04:50:47;;;;;;;17.45;11.95;;;;;;;11.91;100.00;98959.84;1722247;82;21001;-90
2022/09/05 04:53:45;;;;;;;16.55;11.33;;;;;;;11.89;100.00;98955.23;1713764;82;21076;-90
2022/09/05 04:56:33;;;;;;;;;;;;;;;11.90;100.00;98956.86;1708791;82;21457;-83
2022/09/05 04:59:25;;;;;;;14.78;10.48;;;;;;;11.92;100.00;98963.38;1701689;82;20191;-83
2022/09/05 05:02:39;;;;;;;20.65;11.60;;;;;;;11.92;100.00;98966.91;1708589;82;21587;-83
2022/09/05 05:05:26;;;;;;;18.15;11.68;;;;;;;11.90;100.00;98969.63;1723491;82;21011;-90
2022/09/05 05:08:22;;;;;;;16.75;11.22;;;;;;;11.93;100.00;98969.08;1713079;82;21092;-89
2022/09/05 05:11:34;;;;;;;16.50;10.82;;;;;;;11.91;100.00;98972.61;1708834;82;21059;-90
2022/09/05 05:14:27;;;;;;;19.00;12.60;;;;;;;11.90;100.00;98973.16;1722935;82;21539;-89
2022/09/05 05:17:32;;;;;;;18.77;11.40;;;;;;;11.95;100.00;98979.95;1713949;82;21202;-90
2022/09/05 05:20:40;;;;;;;16.80;12.15;;;;;;;12.01;100.00;98981.61;1719069;82;21056;-84
2022/09/05 05:23:39;;;;;;;16.40;11.65;;;;;;;12.08;100.00;98982.73;1712129;82;21041;-89
2022/09/05 05:26:31;;;;;;;13.15;9.43;;;;;;;12.14;100.00;98986.56;1715945;82;21096;-83
2022/09/05 05:29:32;;;;;;;12.30;9.53;;;;;;;12.16;100.00;98989.02;1720113;82;21079;-83
2022/09/05 05:32:26;;;;;;;19.95;10.75;;;;;;;12.21;100.00;98992.27;1678408;84;21030;-89
2022/09/05 05:35:12;;;;;;;16.50;10.82;;;;;;;12.32;100.00;98991.24;1720039;82;21485;-83
2022/09/05 05:38:33;;;;;;;13.90;9.70;;;;;;;12.51;100.00;98993.73;1735860;82;21033;-83
2022/09/05 05:41:43;;;;;;;11.33;8.90;;;;;;;12.68;100.00;98998.38;1713203;82;47217;-83
2022/09/05 05:44:30;;;;;;;9.08;7.67;;;;;;;12.84;100.00;98998.41;1716123;81;21446;-90
2022/09/05 05:47:29;;;;;;;11.70;8.33;;;;;;;12.85;100.00;99000.86;1717009;80;21166;-83
2022/09/05 05:51:08;;;;;;;13.30;8.95;;;;;;;12.88;100.00;98998.12;1720257;82;21012;-83
2022/09/05 05:54:20;;;;;;;8.40;7.15;;;;;;;13.12;100.00;98997.88;1728477;82;21063;-83
2022/09/05 05:57:35;;;;;;;15.30;8.65;;;;;;;13.04;100.00;98994.87;1714450;82;21044;-90
2022/09/05 06:00:24;;;;;;;10.80;8.50;;;;;;;13.12;100.00;98994.34;1704114;82;21038;-89
2022/09/05 06:03:33;;;;;;;10.38;8.25;;;;;;;13.27;100.00;98997.09;1715001;82;21025;-83
2022/09/05 06:06:37;;;;;;;9.28;7.47;;;;;;;13.36;100.00;98997.35;1711522;82;21008;-90
2022/09/05 06:09:52;;;;;;;10.82;8.08;;;;;;;13.34;100.00;99000.90;1725373;82;21056;-88
2022/09/05 06:13:06;;;;;;;12.78;7.95;;;;;;;13.21;100.00;99003.61;1715175;82;21012;-85
2022/09/05 06:16:34;;;;;;;10.50;7.55;;;;;;;13.23;100.00;99002.79;1723941;81;21056;-90
2022/09/05 06:19:51;;;;;;;9.90;7.22;;;;;;;13.32;100.00;99005.78;1724697;82;21046;-84
2022/09/05 06:23:06;;;;;;;9.10;7.58;;;;;;;13.39;100.00;99003.59;1725282;82;21552;-89
2022/09/05 06:26:19;;;;;;;14.18;9.23;;;;;;;13.53;100.00;99008.77;1715631;82;22290;-83
2022/09/05 06:29:32;;;;;;;16.37;9.90;;;;;;;13.68;100.00;99007.38;1717318;82;21076;-90
2022/09/05 06:32:40;;;;;;;13.38;9.13;;;;;;;13.86;100.00;99013.33;1715352;80;21434;-86
2022/09/05 06:35:42;;;;;;;12.90;10.13;;;;;;;13.98;100.00;99009.19;1713885;82;21764;-90
2022/09/05 06:39:07;;;;;;;11.68;9.45;;;;;;;14.02;100.00;99011.64;1714199;82;21556;-90
2022/09/05 06:42:11;;;;;;;16.17;9.65;;;;;;;14.22;100.00;99019.45;1692769;84;21521;-89
2022/09/05 06:45:17;;;;;;;13.95;10.32;;;;;;;14.29;100.00;99012.61;1716005;80;21093;-90
2022/09/05 06:48:22;;;;;;;12.40;9.60;;;;;;;14.33;100.00;99022.40;1715157;82;21170;-90
2022/09/05 06:51:27;;;;;;;16.02;12.75;;;;;;;14.58;100.00;99010.58;1691384;82;21662;-83
2022/09/05 06:54:40;;;;;;;9.88;8.23;;;;;;;15.06;100.00;99016.27;1717689;82;21076;-84
2022/09/05 06:57:48;;;;;;;11.48;8.65;;;;;;;15.40;100.00;99018.99;1720091;80;21165;-83
2022/09/05 07:00:44;;;;;;;10.15;8.38;;;;;;;15.55;100.00;99026.20;1705605;82;21135;-84
2022/09/05 07:03:46;;;;;;;11.33;9.80;;;;;;;15.62;100.00;99024.80;1697667;82;21162;-84
2022/09/05 07:06:42;;;;;;;11.38;8.78;;;;;;;16.00;100.00;99020.88;1675821;84;21062;-89
2022/09/05 07:09:52;;;;;;;10.20;7.30;;;;;;;16.57;98.28;99029.43;1692291;81;21477;-84
2022/09/05 07:12:48;;;;;;;8.40;7.25;;;;;;;17.35;96.65;99019.00;1714700;82;21021;-90
2022/09/05 07:15:57;;;;;;;8.20;6.92;;;;;;;18.35;99.54;99025.63;1715026;82;21085;-84
2022/09/05 07:19:03;;;;;;;8.58;7.05;;;;;;;19.10;99.14;99024.26;1725550;82;21033;-84
2022/09/05 07:22:16;;;;;;;10.13;6.75;;;;;;;19.59;96.97;99021.97;1730815;80;21524;-84
2022/09/05 07:25:10;;;;;;;8.85;6.90;;;;;;;20.01;89.90;99021.12;1727544;82;21677;-91
2022/09/05 07:28:11;;;;;;;6.80;6.10;;;;;;;20.72;88.58;99022.39;1719321;82;21071;-90
2022/09/05 07:31:15;;;;;;;6.65;5.67;;;;;;;21.72;87.45;99019.43;1714466;82;21119;-91
2022/09/05 07:34:28;;;;;;;7.22;6.53;;;;;;;22.59;86.19;99024.00;1724490;80;21628;-85
2022/09/05 07:37:18;;;;;;;6.75;5.78;;;;;;;22.96;82.91;99022.88;1719276;82;21265;-91
2022/09/05 07:40:08;;;;;;;7.03;6.35;;;;;;;23.17;81.96;99021.49;1720563;82;21008;-88
2022/09/05 07:43:00;;;;;;;8.38;6.03;;;;;;;23.62;79.79;99018.22;1721025;82;20993;-91
2022/09/05 07:45:53;;;;;;;7.92;5.75;;;;;;;23.87;74.56;99011.36;1687284;82;21097;-85
2022/09/05 07:48:59;;;;;;;5.92;5.05;;;;;;;24.31;74.10;99009.66;1702148;82;21155;-85
2022/09/05 07:51:55;;;;;;;7.95;6.05;;;;;;;24.78;73.65;99011.92;1706779;82;21479;-85
2022/09/05 07:54:41;;;;;;;5.40;4.87;;;;;;;24.98;73.05;99010.96;1733182;82;21044;-85
2022/09/05 07:57:32;;;;;;;8.78;5.28;;;;;;;25.40;70.10;99012.57;1744165;80;21178;-85
2022/09/05 08:00:19;;;;;;;5.05;3.80;;;;;;;25.98;67.89;99006.83;1717219;82;21079;-90
2022/09/05 08:03:13;;;;;;;5.87;5.10;;;;;;;26.54;65.48;99003.02;1725283;82;21080;-85
2022/09/05 08:06:03;;;;;;;4.45;3.98;;;;;;;27.12;63.13;99007.30;1722046;82;21096;-91
2022/09/05 08:09:04;;;;;;;5.17;4.15;;;;;;;27.43;62.25;98996.58;1708548;80;21071;-90
2022/09/05 08:11:49;;;;;;;4.30;3.90;;;;;;;27.61;58.29;98978.85;1681615;84;21100;-85
2022/09/05 08:14:56;;;;;;;4.55;3.47;;;;;;;27.61;58.29;98978.85;1714628;82;21509;-91
2022/09/05 08:17:55;;;;;;;6.33;3.58;;;;;;;28.18;56.88;98990.98;1710800;82;21506;-86
2022/09/05 08:20:50;;;;;;;3.83;3.40;;;;;;;28.01;52.61;98986.13;1683314;82;21160;-85
2022/09/05 08:23:55;;;;;;;3.77;3.33;;;;;;;28.62;50.23;98978.14;1679198;84;21012;-91
2022/09/05 08:26:50;;;;;;;7.10;3.50;;;;;;;29.48;52.10;98977.27;1723277;82;22440;-85
2022/09/05 08:29:48;;;;;;;4.65;3.20;;;;;;;30.13;50.46;98977.31;1726902;82;21060;-86
2022/09/05 08:32:47;;;;;;;;;;;;;;;30.85;47.60;98975.23;1717407;80;21095;-91
2022/09/05 08:35:44;;;;;;;4.12;3.47;;;;;;;30.95;44.00;98977.07;1719403;82;20279;-89
2022/09/05 08:38:31;;;;;;;4.22;3.22;;;;;;;31.35;45.04;98969.03;1722357;82;22125;-85
2022/09/05 08:41:49;;;;;;;3.47;3.10;;;;;;;30.81;38.12;98970.80;1718533;82;21492;-86
2022/09/05 08:44:46;;;;;;;;;;;;;;;31.34;43.08;98972.43;1723039;80;21091;-91
2022/09/05 08:48:14;;;;;;;6.45;3.35;;;;;;;30.16;38.63;98965.95;1703630;82;20171;-91
2022/09/05 08:51:23;;;;;;;4.08;2.67;;;;;;;31.06;40.44;98969.52;1645454;85;21498;-92
2022/09/05 08:54:54;;;;;;;3.30;2.98;;;;;;;31.79;36.04;98964.56;1637269;85;21161;-91
2022/09/05 08:58:06;;;;;;;6.45;3.37;;;;;;;31.08;33.83;98964.31;1710025;80;21115;-86
2022/09/05 09:00:55;;;;;;;12.37;3.12;;;;;;;32.26;36.37;98950.72;1701780;82;21095;-91
2022/09/05 09:03:53;;;;;;;5.20;2.80;;;;;;;32.48;34.81;98950.13;1684591;84;21013;-86
2022/09/05 09:07:01;;;;;;;3.33;2.80;;;;;;;31.62;31.67;98958.28;1710224;82;21147;-91
2022/09/05 09:10:11;;;;;;;6.53;3.00;;;;;;;30.79;34.87;98950.21;1645239;85;21146;-90
2022/09/05 09:13:13;;;;;;;4.50;2.62;;;;;;;30.32;34.46;98952.49;1710419;82;21091;-92
2022/09/05 09:16:06;;;;;;;3.40;2.55;;;;;;;30.85;35.21;98950.62;1716419;82;21072;-91
2022/09/05 09:19:04;;;;;;;4.60;2.60;;;;;;;30.86;33.52;98944.66;1714892;82;21103;-86
2022/09/05 09:22:06;;;;;;;4.65;2.75;;;;;;;29.47;36.04;98945.53;1724063;81;21036;-92
2022/09/05 09:25:16;;;;;;;3.92;2.80;;;;;;;28.32;38.39;98940.50;1682995;84;21140;-92
2022/09/05 09:28:27;;;;;;;3.67;2.83;;;;;;;27.82;38.19;98939.67;1729990;82;21182;-91
2022/09/05 09:31:19;;;;;;;8.48;3.37;;;;;;;26.07;42.65;98943.58;1712055;82;21090;-86
2022/09/05 09:34:28;;;;;;;5.47;3.80;;;;;;;25.10;43.66;98935.27;1711015;81;21540;-92
2022/09/05 09:38:05;;;;;;;4.72;3.17;;;;;;;25.17;43.35;98930.51;1710563;83;21598;-92
2022/09/05 09:41:16;;;;;;;4.75;3.17;;;;;;;24.44;45.02;98929.59;1710979;82;21583;-91
2022/09/05 09:44:22;;;;;;;6.58;3.55;;;;;;;23.93;46.17;98933.88;1715039;82;21858;-92
2022/09/05 09:47:11;;;;;;;4.05;3.52;;;;;;;23.28;48.55;98930.88;1716389;80;21493;-85
2022/09/05 09:50:32;;;;;;;;;;;;;;;22.92;48.54;98924.65;1710885;82;21225;-91
2022/09/05 09:53:56;;;;;;;7.85;3.98;;;;;;;22.35;51.68;98932.14;1716793;82;20264;-92
2022/09/05 09:57:36;;;;;;;5.10;3.70;;;;;;;22.36;50.32;98929.61;1718889;82;21618;-85
2022/09/05 10:00:22;;;;;;;4.45;3.80;;;;;;;22.08;50.80;98921.60;1703935;82;21564;-92
2022/09/05 10:03:27;;;;;;;6.53;3.47;;;;;;;21.91;52.37;98931.55;1717284;82;21086;-92
2022/09/05 10:07:08;;;;;;;6.10;3.02;;;;;;;22.08;51.39;98929.31;1715432;82;21239;-93
2022/09/05 10:10:21;;;;;;;6.70;3.52;;;;;;;21.80;52.46;98928.14;1718867;80;21119;-93
2022/09/05 10:13:48;;;;;;;5.10;3.87;;;;;;;22.09;51.44;98921.27;1716480;82;21422;-92
2022/09/05 10:17:08;;;;;;;6.50;3.95;;;;;;;22.17;51.25;98916.27;1724888;82;21088;-92
2022/09/05 10:20:25;;;;;;;7.92;3.72;;;;;;;21.78;51.30;98919.36;1717839;82;21064;-91
2022/09/05 10:23:43;;;;;;;4.20;3.00;;;;;;;22.40;51.14;98915.95;1719468;80;21661;-90
2022/09/05 10:26:45;;;;;;;6.80;3.22;;;;;;;22.41;50.84;98908.72;1703559;82;21176;-92
2022/09/05 10:30:07;;;;;;;5.55;3.62;;;;;;;22.24;52.13;98916.55;1713738;82;21608;-85
2022/09/05 10:33:15;;;;;;;5.62;3.12;;;;;;;22.45;51.26;98912.41;1713353;82;21048;-84
2022/09/05 10:36:16;;;;;;;5.90;3.50;;;;;;;22.69;51.36;98908.16;1708339;82;21054;-85
2022/09/05 10:39:19;;;;;;;6.05;3.45;;;;;;;22.66;51.50;98908.27;1714127;82;21044;-85
2022/09/05 10:42:14;;;;;;;8.03;3.17;;;;;;;22.41;49.90;98907.91;1714532;82;20985;-93
2022/09/05 10:44:58;;;;;;;7.87;3.02;;;;;;;22.53;50.40;98906.01;1719577;82;21159;-86
2022/09/05 10:48:06;;;;;;;4.22;3.47;;;;;;;22.59;50.63;98898.91;1715936;80;20997;-92
2022/09/05 10:51:03;;;;;;;4.93;3.13;;;;;;;22.69;50.61;98897.92;1676239;82;21107;-91
2022/09/05 10:54:31;;;;;;;6.25;3.50;;;;;;;22.58;50.69;98899.48;1696293;82;21619;-84
2022/09/05 10:57:38;;;;;;;4.10;3.70;;;;;;;22.29;51.63;98902.30;1718496;82;21124;-92
2022/09/05 11:00:58;;;;;;;5.55;3.70;;;;;;;22.39;52.16;98901.89;1716289;82;21075;-93
2022/09/05 11:03:50;;;;;;;4.70;3.45;;;;;;;22.31;53.12;98893.94;1721412;82;21013;-93
2022/09/05 11:07:14;;;;;;;6.20;3.62;;;;;;;21.85;52.78;98894.83;1717833;82;21130;-91
2022/09/05 11:10:16;;;;;;;5.10;4.10;;;;;;;21.72;53.42;98893.13;1714426;80;21484;-92
2022/09/05 11:13:11;;;;;;;4.62;3.72;;;;;;;21.63;52.83;98889.03;1725772;82;21477;-92
2022/09/05 11:16:26;;;;;;;6.35;4.22;;;;;;;21.87;53.60;98887.83;1714944;82;21063;-85
2022/09/05 11:19:16;;;;;;;8.15;3.90;;;;;;;21.68;53.40;98882.73;1681846;84;21715;-93
2022/09/05 11:22:02;;;;;;;3.77;3.17;;;;;;;21.90;53.78;98884.42;1721633;80;21485;-93
2022/09/05 11:24:54;;;;;;;3.72;3.10;;;;;;;21.88;53.63;98883.95;1716553;82;21046;-91
2022/09/05 11:27:44;;;;;;;5.40;3.65;;;;;;;22.10;53.79;98879.30;1709910;82;21095;-85
2022/09/05 11:30:32;;;;;;;6.55;3.50;;;;;;;22.18;52.71;98879.81;1712908;82;21229;-92
2022/09/05 11:33:52;;;;;;;4.20;3.70;;;;;;;22.11;52.21;98885.85;1714617;82;21272;-85
2022/09/05 11:36:46;;;;;;;7.60;3.58;;;;;;;22.07;51.74;98880.78;1710559;82;21148;-84
2022/09/05 11:40:02;;;;;;;8.68;4.33;;;;;;;21.67;53.44;98882.50;1719516;82;21060;-84
2022/09/05 11:43:01;;;;;;;4.85;3.75;;;;;;;21.66;53.98;98880.09;1712149;82;21075;-84
2022/09/05 11:46:32;;;;;;;6.62;3.30;;;;;;;21.59;53.44;98884.73;1715308;81;21135;-84
2022/09/05 11:49:41;;;;;;;8.05;3.95;;;;;;;21.74;53.57;98879.23;1720931;82;21061;-92
2022/09/05 11:52:53;;;;;;;5.10;3.72;;;;;;;21.66;53.08;98875.95;1717553;82;21081;-84
2022/09/05 11:55:55;;;;;;;6.33;4.30;;;;;;;21.76;52.16;98874.76;1700405;82;21139;-85
2022/09/05 11:59:14;;;;;;;10.13;4.33;;;;;;;21.75;53.22;98875.91;1724893;80;21024;-91
2022/09/05 12:02:49;;;;;;;6.10;3.75;;;;;;;21.69;53.35;98880.22;1711747;82;21127;-93
2022/09/05 12:05:51;;;;;;;7.80;4.20;;;;;;;21.87;54.00;98869.09;1726311;82;21520;-85
2022/09/05 12:08:38;;;;;;;10.00;4.17;;;;;;;21.71;53.72;98872.20;1720568;82;21072;-85
2022/09/05 12:12:06;;;;;;;9.93;3.80;;;;;;;21.75;52.37;98867.05;1716302;80;21502;-84
2022/09/05 12:15:17;;;;;;;4.08;3.25;;;;;;;21.89;53.00;98871.77;1719122;82;21004;-84
2022/09/05 12:18:26;;;;;;;5.45;3.62;;;;;;;21.75;50.96;98870.39;1718317;82;20993;-91
2022/09/05 12:21:27;;;;;;;6.95;3.98;;;;;;;21.52;50.94;98867.89;1715424;82;21048;-93
2022/09/05 12:24:31;;;;;;;5.78;3.77;;;;;;;21.71;51.30;98862.55;1721066;81;21497;-93
2022/09/05 12:27:16;;;;;;;4.80;3.80;;;;;;;21.72;52.29;98864.98;1684545;82;21064;-84
2022/09/05 12:30:08;;;;;;;7.10;4.50;;;;;;;21.67;52.42;98863.77;1721702;82;21033;-84
2022/09/05 12:32:59;;;;;;;7.00;4.50;;;;;;;21.80;51.74;98861.94;1711863;82;21112;-85
2022/09/05 12:35:54;;;;;;;6.75;3.98;;;;;;;21.73;51.22;98852.80;1709321;81;21540;-85
2022/09/05 12:38:50;;;;;;;6.45;3.90;;;;;;;21.84;50.32;98854.02;1715599;82;21845;-83
2022/09/05 12:41:57;;;;;;;5.42;3.70;;;;;;;22.05;50.84;98859.59;1694830;82;22444;-93
2022/09/05 12:44:50;;;;;;;5.95;3.58;;;;;;;22.09;49.45;98863.31;1715709;82;21457;-93
2022/09/05 12:48:00;;;;;;;6.37;3.47;;;;;;;21.95;49.61;98854.44;1716340;81;21042;-93
2022/09/05 12:51:04;;;;;;;4.20;3.02;;;;;;;22.11;49.48;98854.11;1691875;82;21190;-92
2022/09/05 12:53:56;;;;;;;5.40;3.15;;;;;;;22.22;49.81;98851.79;1717578;80;21045;-84
2022/09/05 12:56:57;;;;;;;5.35;3.42;;;;;;;22.56;50.36;98851.23;1717343;80;21638;-90
2022/09/05 12:59:44;;;;;;;6.20;3.98;;;;;;;22.57;49.52;98846.78;1711454;80;21076;-85
2022/09/05 13:02:31;;;;;;;5.40;3.47;;;;;;;22.76;48.65;98855.37;1720542;82;21131;-92
2022/09/05 13:05:17;;;;;;;7.03;3.87;;;;;;;22.62;47.66;98841.61;1692327;83;21002;-91
2022/09/05 13:08:01;;;;;;;5.05;2.95;;;;;;;22.52;49.49;98850.55;1718711;82;21043;-91
2022/09/05 13:10:49;;;;;;;3.60;2.87;;;;;;;22.75;48.95;98846.84;1716993;82;21560;-93
2022/09/05 13:13:46;;;;;;;4.85;3.60;;;;;;;22.53;48.87;98838.92;1716299;82;21072;-85
2022/09/05 13:16:30;;;;;;;6.70;3.30;;;;;;;22.48;49.28;98833.63;1730706;82;20967;-85
2022/09/05 13:19:23;;;;;;;5.87;3.52;;;;;;;22.43;49.69;98841.53;1708967;82;21115;-84
2022/09/05 13:22:09;;;;;;;6.08;3.02;;;;;;;;;;1722597;82;21068;-92
2022/09/05 13:25:01;;;;;;;5.55;3.58;;;;;;;21.74;49.89;98853.03;1712767;82;21021;-91
2022/09/05 13:27:55;;;;;;;5.58;3.27;;;;;;;22.05;49.99;98855.45;1728059;82;21043;-92
2022/09/05 13:30:37;;;;;;;6.30;3.77;;;;;;;22.05;49.53;98847.71;1712772;82;21162;-84
2022/09/05 13:33:43;;;;;;;8.95;3.92;;;;;;;21.80;50.58;98849.52;1720065;82;21142;-92
2022/09/05 13:36:29;;;;;;;6.00;3.60;;;;;;;21.67;49.76;98846.66;1716876;82;22320;-93
2022/09/05 13:39:16;;;;;;;5.95;4.17;;;;;;;21.78;49.99;98847.64;1715436;82;20997;-93
2022/09/05 13:42:02;;;;;;;7.53;4.50;;;;;;;21.94;50.26;98850.06;1715055;82;21056;-92
2022/09/05 13:44:51;;;;;;;3.92;3.40;;;;;;;21.84;49.80;98843.56;1726558;82;21028;-84
2022/09/05 13:48:03;;;;;;;6.78;3.80;;;;;;;22.07;51.05;98846.83;1724332;81;21130;-84
2022/09/05 13:50:53;;;;;;;10.15;3.92;;;;;;;22.18;50.12;98851.63;1686758;82;21068;-85
2022/09/05 13:53:50;;;;;;;5.62;4.22;;;;;;;22.15;49.85;98843.23;1709602;82;21108;-92
2022/09/05 13:56:30;;;;;;;5.15;3.60;;;;;;;21.98;49.76;98846.08;1729293;82;21059;-84
2022/09/05 13:59:14;;;;;;;6.50;3.67;;;;;;;21.89;50.77;98847.52;1729128;82;21124;-92
2022/09/05 14:02:41;;;;;;;8.15;3.52;;;;;;;22.04;50.94;98849.66;1723638;82;21300;-85
2022/09/05 14:06:06;;;;;;;5.60;3.52;;;;;;;22.13;50.73;98843.57;1684958;84;21078;-92
2022/09/05 14:09:26;;;;;;;8.73;3.75;;;;;;;22.12;49.65;98843.88;1704600;82;20993;-92
2022/09/05 14:12:31;;;;;;;6.17;3.30;;;;;;;22.08;50.22;98841.57;1725205;82;21246;-92
2022/09/05 14:15:24;;;;;;;7.58;3.50;;;;;;;22.21;50.65;98834.97;1727819;82;21072;-84